createdAt,value
2017-11-12T00:00:02.944Z,11.30
2017-11-12T00:02:31.080Z,10.82
2017-11-12T00:04:59.182Z,11.95
2017-11-12T00:07:27.314Z,10.52
2017-11-12T00:09:55.401Z,11.30
2017-11-12T00:12:23.489Z,11.00
2017-11-12T00:14:51.568Z,10.88
2017-11-12T00:17:19.717Z,12.07
2017-11-12T00:19:47.806Z,11.57
2017-11-12T00:22:15.908Z,12.57
2017-11-12T00:24:44.771Z,13.25
2017-11-12T00:27:12.862Z,11.85
2017-11-12T00:29:41.723Z,12.05
2017-11-12T00:32:09.839Z,12.50
2017-11-12T00:34:37.936Z,12.15
2017-11-12T00:37:06.038Z,12.15
2017-11-12T00:40:06.158Z,12.43
2017-11-12T00:46:13.413Z,12.30
2017-11-12T00:49:21.413Z,12.85
2017-11-12T00:52:14.424Z,12.48
2017-11-12T00:54:59.919Z,12.02
2017-11-12T00:57:37.404Z,12.73
2017-11-12T01:00:05.702Z,12.43
2017-11-12T01:02:33.819Z,12.00
2017-11-12T01:05:01.948Z,10.48
2017-11-12T01:07:30.853Z,9.65
2017-11-12T01:09:58.970Z,10.38
2017-11-12T01:12:33.994Z,11.00
2017-11-12T01:15:02.127Z,10.68
2017-11-12T01:17:31.003Z,12.10
2017-11-12T01:19:59.130Z,11.65
2017-11-12T01:22:27.223Z,10.32
2017-11-12T01:24:55.312Z,11.50
2017-11-12T01:30:20.928Z,12.30
2017-11-12T01:32:49.006Z,14.02
2017-11-12T01:35:17.129Z,14.05
2017-11-12T01:37:45.977Z,12.40
2017-11-12T01:40:14.095Z,14.70
2017-11-12T01:42:42.956Z,13.02
2017-11-12T01:45:11.061Z,13.15
2017-11-12T01:47:39.948Z,12.70
2017-11-12T01:50:08.821Z,12.07
2017-11-12T01:52:36.913Z,11.25
2017-11-12T01:55:05.778Z,10.50
2017-11-12T01:57:48.972Z,9.23
2017-11-12T02:00:17.074Z,9.20
2017-11-12T02:02:45.157Z,10.48
2017-11-12T02:05:13.273Z,12.30
2017-11-12T02:07:41.365Z,12.07
2017-11-12T02:10:09.444Z,11.90
2017-11-12T02:12:37.539Z,12.57
2017-11-12T02:15:05.645Z,13.82
2017-11-12T02:17:34.513Z,13.85
2017-11-12T02:20:02.606Z,13.60
2017-11-12T02:22:31.498Z,12.43
2017-11-12T02:25:00.371Z,11.82
2017-11-12T02:27:29.720Z,11.82
2017-11-12T02:29:57.855Z,12.50
2017-11-12T02:32:26.714Z,11.52
2017-11-12T02:34:54.827Z,11.05
2017-11-12T02:37:22.943Z,11.23
2017-11-12T02:39:51.026Z,10.90
2017-11-12T02:42:19.121Z,10.25
2017-11-12T02:44:47.219Z,11.15
2017-11-12T02:47:16.074Z,11.70
2017-11-12T02:49:44.161Z,11.75
2017-11-12T02:52:12.241Z,12.07
2017-11-12T02:54:40.362Z,12.05
2017-11-12T02:57:08.449Z,12.75
2017-11-12T02:59:46.092Z,12.35
2017-11-12T03:02:14.959Z,11.70
2017-11-12T03:04:43.068Z,12.52
2017-11-12T03:07:11.939Z,12.15
2017-11-12T03:09:40.091Z,11.12
2017-11-12T03:12:08.201Z,13.07
2017-11-12T03:14:37.075Z,13.23
2017-11-12T03:17:06.185Z,13.40
2017-11-12T03:19:35.039Z,13.35
2017-11-12T03:22:03.136Z,12.90
2017-11-12T03:24:31.209Z,15.73
2017-11-12T03:27:00.091Z,13.35
2017-11-12T03:29:28.168Z,11.90
2017-11-12T03:31:56.255Z,12.18
2017-11-12T03:34:25.126Z,14.65
2017-11-12T03:36:53.213Z,14.75
2017-11-12T03:39:22.078Z,15.15
2017-11-12T03:41:50.168Z,16.52
2017-11-12T03:44:18.252Z,19.65
2017-11-12T03:46:47.135Z,19.40
2017-11-12T03:49:15.205Z,19.87
2017-11-12T03:51:44.062Z,20.98
2017-11-12T03:54:12.136Z,18.25
2017-11-12T03:56:40.216Z,17.30
2017-11-12T03:59:08.295Z,17.75
2017-11-12T04:01:36.380Z,22.17
2017-11-12T04:04:05.248Z,22.92
2017-11-12T04:06:33.339Z,26.70
2017-11-12T04:09:01.436Z,24.75
2017-11-12T04:11:30.287Z,21.50
2017-11-12T04:13:58.369Z,20.83
2017-11-12T04:16:26.454Z,17.87
2017-11-12T04:18:55.366Z,20.95
2017-11-12T04:21:24.210Z,23.35
2017-11-12T04:23:52.297Z,25.15
2017-11-12T04:26:20.396Z,25.48
2017-11-12T04:28:49.238Z,26.40
2017-11-12T04:31:17.333Z,29.17
2017-11-12T04:33:45.404Z,24.17
2017-11-12T04:36:13.493Z,24.80
2017-11-12T04:38:41.569Z,22.45
2017-11-12T04:41:10.455Z,29.65
2017-11-12T04:43:39.311Z,37.08
2017-11-12T04:46:07.396Z,26.95
2017-11-12T04:48:35.491Z,32.75
2017-11-12T04:51:03.609Z,31.73
2017-11-12T04:53:31.716Z,33.20
2017-11-12T04:55:59.820Z,30.70
2017-11-12T04:58:28.670Z,31.37
2017-11-12T05:00:56.763Z,26.05
2017-11-12T05:03:24.868Z,27.25
2017-11-12T05:05:53.709Z,26.20
2017-11-12T05:08:21.795Z,22.55
2017-11-12T05:10:49.886Z,22.35
2017-11-12T05:13:18.753Z,25.10
2017-11-12T05:15:46.813Z,25.35
2017-11-12T05:18:14.904Z,24.60
2017-11-12T05:20:42.974Z,23.83
2017-11-12T05:23:11.116Z,22.73
2017-11-12T05:25:39.206Z,20.90
2017-11-12T05:28:07.283Z,21.42
2017-11-12T05:30:35.362Z,21.85
2017-11-12T05:33:03.437Z,20.33
2017-11-12T05:35:31.507Z,19.60
2017-11-12T05:37:59.623Z,19.55
2017-11-12T05:40:27.700Z,20.77
2017-11-12T05:42:55.794Z,19.37
2017-11-12T05:45:24.813Z,18.87
2017-11-12T05:47:52.901Z,21.73
2017-11-12T05:50:20.966Z,25.02
2017-11-12T05:52:49.064Z,28.25
2017-11-12T05:55:17.897Z,22.87
2017-11-12T05:57:46.736Z,28.90
2017-11-12T06:00:15.567Z,20.48
2017-11-12T06:02:44.422Z,21.33
2017-11-12T06:05:13.260Z,26.75
2017-11-12T06:07:41.349Z,21.98
2017-11-12T06:10:09.441Z,20.42
2017-11-12T06:12:37.527Z,21.70
2017-11-12T06:15:06.378Z,22.08
2017-11-12T06:17:34.465Z,23.95
2017-11-12T06:20:02.543Z,26.50
2017-11-12T06:22:30.636Z,22.67
2017-11-12T06:24:59.493Z,24.27
2017-11-12T06:27:27.669Z,22.10
2017-11-12T06:29:55.745Z,20.85
2017-11-12T06:32:23.821Z,23.23
2017-11-12T06:34:51.897Z,25.23
2017-11-12T06:37:19.984Z,24.75
2017-11-12T06:39:48.833Z,27.48
2017-11-12T06:42:16.940Z,24.52
2017-11-12T06:44:45.051Z,25.20
2017-11-12T06:47:13.142Z,26.50
2017-11-12T06:49:41.984Z,24.10
2017-11-12T06:52:10.852Z,25.52
2017-11-12T06:54:38.935Z,25.52
2017-11-12T06:57:07.069Z,33.85
2017-11-12T06:59:35.149Z,29.12
2017-11-12T07:02:03.237Z,30.20
2017-11-12T07:04:31.329Z,29.35
2017-11-12T07:06:59.402Z,30.60
2017-11-12T07:09:27.522Z,31.37
2017-11-12T07:11:55.598Z,32.63
2017-11-12T07:14:23.687Z,25.08
2017-11-12T07:16:51.779Z,29.33
2017-11-12T07:19:19.864Z,30.60
2017-11-12T07:21:47.924Z,26.40
2017-11-12T07:24:16.020Z,28.30
2017-11-12T07:26:44.874Z,29.50
2017-11-12T07:29:12.969Z,29.60
2017-11-12T07:31:41.033Z,30.65
2017-11-12T07:34:09.122Z,28.00
2017-11-12T07:36:37.976Z,29.27
2017-11-12T07:39:06.060Z,26.12
2017-11-12T07:41:34.137Z,26.25
2017-11-12T07:44:02.221Z,27.05
2017-11-12T07:46:30.293Z,27.85
2017-11-12T07:48:58.371Z,26.95
2017-11-12T07:51:26.449Z,25.35
2017-11-12T07:53:55.307Z,23.00
2017-11-12T07:56:23.380Z,22.50
2017-11-12T07:58:51.473Z,23.73
2017-11-12T08:01:19.541Z,22.20
2017-11-12T08:03:47.616Z,19.65
2017-11-12T08:06:15.688Z,22.80
2017-11-12T08:08:43.767Z,21.67
2017-11-12T08:11:11.849Z,25.62
2017-11-12T08:13:40.709Z,26.83
2017-11-12T08:16:08.828Z,28.77
2017-11-12T08:18:36.925Z,25.25
2017-11-12T08:21:04.994Z,23.60
2017-11-12T08:23:33.080Z,25.48
2017-11-12T08:26:01.186Z,25.23
2017-11-12T08:28:29.259Z,25.30
2017-11-12T08:30:57.333Z,24.25
2017-11-12T08:33:25.404Z,22.35
2017-11-12T08:35:53.486Z,23.35
2017-11-12T08:38:22.337Z,24.15
2017-11-12T08:40:50.414Z,22.55
2017-11-12T08:43:18.502Z,23.12
2017-11-12T08:45:46.581Z,21.85
2017-11-12T08:48:14.679Z,22.85
2017-11-12T08:50:43.521Z,24.12
2017-11-12T08:53:11.641Z,25.05
2017-11-12T08:55:40.494Z,23.55
2017-11-12T08:58:08.589Z,23.23
2017-11-12T09:00:37.439Z,26.33
2017-11-12T09:03:05.538Z,24.83
2017-11-12T09:05:33.611Z,23.48
2017-11-12T09:08:01.698Z,25.08
2017-11-12T09:10:30.539Z,25.33
2017-11-12T09:12:59.385Z,25.02
2017-11-12T09:15:28.233Z,29.30
2017-11-12T09:17:56.333Z,24.70
2017-11-12T09:20:24.424Z,24.42
2017-11-12T09:22:53.318Z,26.67
2017-11-12T09:25:22.161Z,26.23
2017-11-12T09:27:50.472Z,25.85
2017-11-12T09:30:18.550Z,28.92
2017-11-12T09:32:47.407Z,31.17
2017-11-12T09:35:15.489Z,26.05
2017-11-12T09:37:43.564Z,27.05
2017-11-12T09:40:11.651Z,24.60
2017-11-12T09:42:39.719Z,27.02
2017-11-12T09:45:07.802Z,26.00
2017-11-12T09:47:35.918Z,26.30
2017-11-12T09:50:04.765Z,25.77
2017-11-12T09:52:33.850Z,26.27
2017-11-12T09:55:01.941Z,27.90
2017-11-12T09:57:30.813Z,28.52
2017-11-12T09:59:58.963Z,26.23
2017-11-12T10:02:27.124Z,30.48
2017-11-12T10:04:55.201Z,29.05
2017-11-12T10:07:23.293Z,29.67
2017-11-12T10:09:51.377Z,26.65
2017-11-12T10:12:20.294Z,27.98
2017-11-12T10:14:48.422Z,26.65
2017-11-12T10:17:16.495Z,28.67
2017-11-12T10:19:44.602Z,27.52
2017-11-12T10:22:13.436Z,30.70
2017-11-12T10:24:41.519Z,30.52
2017-11-12T10:27:09.632Z,27.05
2017-11-12T10:29:38.484Z,26.70
2017-11-12T10:32:06.800Z,26.73
2017-11-12T10:34:35.746Z,28.12
2017-11-12T10:37:03.847Z,28.45
2017-11-12T10:39:31.926Z,26.17
2017-11-12T10:42:00.299Z,30.67
2017-11-12T10:44:28.368Z,31.75
2017-11-12T10:46:56.448Z,29.37
2017-11-12T10:49:24.524Z,30.15
2017-11-12T10:51:53.387Z,31.25
2017-11-12T10:54:21.477Z,30.30
2017-11-12T10:56:49.558Z,30.62
2017-11-12T10:59:17.634Z,28.60
2017-11-12T11:01:45.753Z,28.30
2017-11-12T11:04:13.850Z,30.20
2017-11-12T11:06:41.943Z,26.27
2017-11-12T11:09:10.033Z,28.58
2017-11-12T11:11:38.862Z,25.60
2017-11-12T11:14:06.949Z,24.50
2017-11-12T11:16:35.029Z,21.75
2017-11-12T11:19:03.127Z,22.62
2017-11-12T11:21:31.206Z,17.48
2017-11-12T11:24:00.085Z,11.52
2017-11-12T11:26:28.169Z,10.15
2017-11-12T11:28:57.045Z,9.73
2017-11-12T11:31:25.143Z,8.50
2017-11-12T11:33:53.994Z,8.18
2017-11-12T11:36:22.096Z,8.93
2017-11-12T11:38:50.957Z,7.95
2017-11-12T11:41:19.033Z,7.75
2017-11-12T11:43:47.120Z,8.63
2017-11-12T11:46:15.224Z,5.78
2017-11-12T11:48:44.056Z,5.78
2017-11-12T11:51:12.988Z,5.72
2017-11-12T11:53:43.405Z,7.75
2017-11-12T11:56:11.465Z,6.05
2017-11-12T11:58:39.540Z,7.35
2017-11-12T12:01:07.616Z,5.12
2017-11-12T12:03:35.687Z,4.15
2017-11-12T12:06:03.773Z,6.18
2017-11-12T12:08:32.609Z,6.50
2017-11-12T12:11:00.679Z,5.45
2017-11-12T12:13:29.517Z,5.05
2017-11-12T12:15:57.611Z,5.35
2017-11-12T12:18:26.465Z,5.32
2017-11-12T12:20:54.543Z,5.35
2017-11-12T12:23:22.603Z,5.28
2017-11-12T12:25:50.674Z,4.10
2017-11-12T12:28:18.750Z,4.55
2017-11-12T12:30:46.821Z,3.80
2017-11-12T12:33:14.890Z,3.30
2017-11-12T12:35:42.986Z,3.50
2017-11-12T12:38:11.040Z,3.60
2017-11-12T12:40:39.122Z,3.40
2017-11-12T12:43:07.195Z,2.72
2017-11-12T12:45:35.261Z,3.20
2017-11-12T12:48:03.329Z,2.22
2017-11-12T12:50:31.383Z,2.50
2017-11-12T12:52:59.467Z,3.00
2017-11-12T12:55:27.562Z,2.70
2017-11-12T12:57:55.624Z,3.83
2017-11-12T13:00:23.720Z,3.50
2017-11-12T13:02:52.555Z,3.90
2017-11-12T13:05:22.021Z,3.60
2017-11-12T13:07:50.877Z,3.25
2017-11-12T13:10:18.943Z,3.45
2017-11-12T13:12:47.008Z,3.20
2017-11-12T13:15:15.092Z,4.32
2017-11-12T13:17:43.147Z,5.43
2017-11-12T13:20:11.227Z,5.78
2017-11-12T13:22:39.302Z,4.00
2017-11-12T13:25:07.368Z,4.53
2017-11-12T13:27:35.424Z,3.90
2017-11-12T13:30:03.494Z,3.45
2017-11-12T13:32:31.560Z,3.28
2017-11-12T13:34:59.633Z,3.67
2017-11-12T13:37:27.705Z,7.87
2017-11-12T13:39:55.789Z,5.85
2017-11-12T13:42:24.702Z,4.47
2017-11-12T13:44:52.761Z,2.78
2017-11-12T13:47:21.909Z,4.75
2017-11-12T13:49:50.797Z,4.07
2017-11-12T13:52:18.911Z,4.57
2017-11-12T13:54:47.749Z,4.37
2017-11-12T13:57:15.872Z,7.37
2017-11-12T13:59:43.935Z,4.03
2017-11-12T14:02:12.015Z,4.65
2017-11-12T14:04:40.837Z,4.57
2017-11-12T14:07:08.913Z,5.07
2017-11-12T14:09:36.981Z,4.70
2017-11-12T14:12:05.056Z,4.07
2017-11-12T14:14:33.108Z,3.53
2017-11-12T14:17:01.181Z,3.85
2017-11-12T14:19:29.248Z,4.93
2017-11-12T14:21:57.315Z,4.30
2017-11-12T14:24:25.397Z,3.85
2017-11-12T14:26:53.461Z,6.20
2017-11-12T14:29:21.561Z,5.00
2017-11-12T14:31:49.629Z,5.12
2017-11-12T14:34:17.701Z,7.70
2017-11-12T14:36:45.760Z,6.72
2017-11-12T14:39:13.840Z,6.78
2017-11-12T14:41:41.914Z,5.90
2017-11-12T14:44:10.008Z,7.62
2017-11-12T14:46:38.084Z,6.10
2017-11-12T14:49:06.916Z,7.15
2017-11-12T14:51:34.984Z,8.20
2017-11-12T14:54:03.056Z,8.85
2017-11-12T14:56:31.136Z,8.35
2017-11-12T14:58:59.200Z,8.48
2017-11-12T15:01:27.290Z,7.75
2017-11-12T15:03:55.365Z,8.18
2017-11-12T15:06:23.445Z,5.95
2017-11-12T15:08:51.514Z,6.93
2017-11-12T15:11:19.605Z,10.18
2017-11-12T15:13:48.573Z,6.15
2017-11-12T15:16:16.627Z,6.28
2017-11-12T15:18:44.700Z,6.82
2017-11-12T15:21:12.768Z,8.35
2017-11-12T15:23:40.857Z,7.50
2017-11-12T15:26:08.920Z,7.70
2017-11-12T15:28:36.989Z,7.20
2017-11-12T15:31:05.062Z,7.50
2017-11-12T15:33:33.156Z,9.75
2017-11-12T15:36:01.218Z,5.40
2017-11-12T15:38:30.052Z,6.07
2017-11-12T15:40:58.896Z,8.52
2017-11-12T15:43:26.998Z,8.90
2017-11-12T15:45:55.074Z,9.65
2017-11-12T15:48:23.171Z,6.53
2017-11-12T15:50:52.012Z,7.60
2017-11-12T15:53:20.085Z,6.18
2017-11-12T15:55:48.173Z,8.00
2017-11-12T15:58:16.231Z,6.78
2017-11-12T16:00:44.306Z,4.50
2017-11-12T16:03:12.368Z,5.78
2017-11-12T16:05:40.549Z,4.62
2017-11-12T16:08:08.827Z,5.72
2017-11-12T16:10:36.944Z,5.57
2017-11-12T16:13:05.780Z,6.00
2017-11-12T16:15:33.861Z,7.10
2017-11-12T16:18:01.934Z,7.05
2017-11-12T16:20:30.020Z,6.22
2017-11-12T16:22:58.114Z,6.62
2017-11-12T16:25:26.173Z,5.32
2017-11-12T16:30:52.095Z,8.30
2017-11-12T16:33:20.177Z,7.37
2017-11-12T16:35:48.257Z,8.40
2017-11-12T16:38:16.325Z,6.15
2017-11-12T16:40:44.394Z,6.00
2017-11-12T16:43:12.481Z,4.53
2017-11-12T16:45:41.019Z,4.43
2017-11-12T16:48:09.099Z,7.87
2017-11-12T16:50:37.970Z,6.75
2017-11-12T16:53:06.045Z,6.35
2017-11-12T16:55:34.160Z,5.65
2017-11-12T16:58:02.244Z,5.80
2017-11-12T17:00:30.306Z,4.93
2017-11-12T17:02:58.459Z,5.10
2017-11-12T17:05:26.654Z,5.43
2017-11-12T17:07:54.920Z,5.18
2017-11-12T17:10:22.997Z,5.30
2017-11-12T17:12:51.057Z,5.65
2017-11-12T17:15:19.142Z,6.12
2017-11-12T17:17:47.204Z,6.60
2017-11-12T17:20:15.283Z,8.82
2017-11-12T17:22:43.344Z,7.55
2017-11-12T17:25:11.416Z,7.40
2017-11-12T17:27:39.489Z,7.05
2017-11-12T17:30:07.560Z,6.68
2017-11-12T17:32:35.631Z,6.87
2017-11-12T17:35:03.821Z,8.30
2017-11-12T17:37:31.882Z,9.82
2017-11-12T17:39:59.944Z,8.98
2017-11-12T17:42:28.009Z,6.90
2017-11-12T17:44:56.073Z,7.20
2017-11-12T17:47:24.166Z,8.52
2017-11-12T17:49:52.446Z,9.20
2017-11-12T17:52:20.521Z,7.43
2017-11-12T17:54:48.603Z,7.20
2017-11-12T17:57:16.693Z,8.30
2017-11-12T17:59:45.577Z,7.72
2017-11-12T18:02:13.677Z,6.60
2017-11-12T18:04:42.595Z,8.52
2017-11-12T18:07:10.688Z,8.05
2017-11-12T18:09:38.866Z,9.13
2017-11-12T18:12:06.968Z,9.13
2017-11-12T18:14:35.148Z,9.25
2017-11-12T18:17:05.300Z,8.60
2017-11-12T18:19:33.549Z,9.07
2017-11-12T18:22:02.638Z,7.97
2017-11-12T18:24:34.572Z,9.70
2017-11-12T18:27:02.876Z,10.00
2017-11-12T18:29:32.004Z,10.00
2017-11-12T18:32:01.289Z,8.07
2017-11-12T18:34:30.146Z,8.10
2017-11-12T18:36:58.204Z,7.10
2017-11-12T18:39:26.271Z,7.22
2017-11-12T18:41:54.346Z,6.37
2017-11-12T18:44:22.469Z,5.55
2017-11-12T18:46:50.545Z,6.12
2017-11-12T18:49:19.380Z,5.20
2017-11-12T18:51:47.536Z,4.70
2017-11-12T18:54:15.601Z,4.55
2017-11-12T19:00:00.658Z,4.85
2017-11-12T19:02:35.154Z,4.20
2017-11-12T19:08:08.908Z,4.87
2017-11-12T19:10:37.740Z,4.15
2017-11-12T19:13:06.572Z,5.68
2017-11-12T19:15:34.669Z,4.93
2017-11-12T19:18:04.335Z,5.87
2017-11-12T19:20:32.957Z,4.70
2017-11-12T19:23:05.317Z,5.40
2017-11-12T19:25:34.921Z,6.22
2017-11-12T19:28:03.761Z,5.60
2017-11-12T19:30:31.831Z,4.50
2017-11-12T19:32:59.911Z,4.80
2017-11-12T19:35:27.989Z,8.80
2017-11-12T19:37:56.057Z,8.57
2017-11-12T19:40:24.884Z,6.60
2017-11-12T19:42:52.960Z,8.30
2017-11-12T19:45:21.028Z,5.50
2017-11-12T19:47:49.105Z,6.30
2017-11-12T19:50:17.264Z,8.90
2017-11-12T19:52:45.344Z,4.85
2017-11-12T19:55:13.409Z,7.05
2017-11-12T19:57:41.514Z,5.28
2017-11-12T20:00:10.567Z,4.62
2017-11-12T20:02:38.635Z,6.90
2017-11-12T20:05:06.704Z,4.18
2017-11-12T20:07:34.782Z,4.00
2017-11-12T20:10:02.850Z,8.63
2017-11-12T20:12:30.931Z,7.80
2017-11-12T20:14:59.019Z,4.70
2017-11-12T20:17:27.085Z,5.87
2017-11-12T20:19:55.153Z,4.45
2017-11-12T20:22:23.212Z,3.95
2017-11-12T20:24:51.280Z,4.97
2017-11-12T20:27:19.373Z,8.30
2017-11-12T20:29:47.473Z,3.33
2017-11-12T20:32:16.309Z,8.82
2017-11-12T20:34:44.373Z,4.95
2017-11-12T20:37:12.456Z,5.28
2017-11-12T20:39:40.625Z,3.50
2017-11-12T20:42:08.849Z,16.70
2017-11-12T20:44:37.004Z,5.50
2017-11-12T20:47:05.090Z,5.25
2017-11-12T20:49:33.153Z,8.70
2017-11-12T20:52:01.220Z,7.05
2017-11-12T20:54:29.295Z,6.20
2017-11-12T20:56:57.383Z,4.12
2017-11-12T20:59:26.226Z,3.80
2017-11-12T21:01:54.312Z,4.55
2017-11-12T21:04:22.719Z,4.45
2017-11-12T21:06:50.775Z,7.40
2017-11-12T21:09:18.854Z,8.25
2017-11-12T21:11:46.916Z,3.62
2017-11-12T21:14:14.992Z,5.18
2017-11-12T21:16:43.057Z,4.22
2017-11-12T21:19:12.461Z,6.37
2017-11-12T21:24:48.445Z,6.60
2017-11-12T21:27:31.529Z,4.53
2017-11-12T21:33:27.098Z,5.75
2017-11-12T21:36:05.894Z,8.90
2017-11-12T21:38:33.964Z,4.50
2017-11-12T21:41:02.037Z,4.78
2017-11-12T21:43:30.111Z,4.68
2017-11-12T21:45:58.212Z,5.30
2017-11-12T21:48:26.516Z,5.12
2017-11-12T21:50:54.592Z,6.37
2017-11-12T21:53:23.430Z,8.27
2017-11-12T21:55:51.512Z,5.75
2017-11-12T21:58:19.601Z,7.60
2017-11-12T22:00:47.698Z,8.40
2017-11-12T22:03:16.532Z,7.40
2017-11-12T22:05:44.618Z,6.60
2017-11-12T22:08:12.715Z,7.78
2017-11-12T22:10:40.805Z,7.45
2017-11-12T22:13:09.680Z,7.43
2017-11-12T22:15:37.764Z,8.65
2017-11-12T22:18:05.839Z,8.90
2017-11-12T22:20:34.684Z,11.00
2017-11-12T22:23:02.769Z,9.88
2017-11-12T22:25:30.841Z,9.00
2017-11-12T22:27:59.696Z,10.20
2017-11-12T22:30:27.761Z,10.02
2017-11-12T22:32:56.269Z,10.20
2017-11-12T22:35:24.337Z,11.85
2017-11-12T22:37:53.164Z,10.73
2017-11-12T22:40:21.249Z,11.40
2017-11-12T22:42:49.334Z,11.57
2017-11-12T22:45:18.202Z,10.95
2017-11-12T22:47:46.277Z,9.73
2017-11-12T22:50:14.357Z,11.07
2017-11-12T22:52:42.425Z,12.37
2017-11-12T22:55:10.499Z,11.90
2017-11-12T22:57:39.337Z,11.32
2017-11-12T23:00:07.423Z,12.73
2017-11-12T23:02:35.492Z,13.73
2017-11-12T23:05:03.576Z,13.75
2017-11-12T23:07:31.647Z,11.60
2017-11-12T23:09:59.750Z,12.85
2017-11-12T23:12:27.836Z,13.80
2017-11-12T23:14:56.684Z,12.70
2017-11-12T23:17:24.762Z,13.35
2017-11-12T23:19:52.844Z,13.75
2017-11-12T23:22:20.952Z,13.20
2017-11-12T23:24:49.792Z,14.38
2017-11-12T23:27:18.018Z,16.83
2017-11-12T23:29:46.857Z,14.32
2017-11-12T23:32:14.927Z,14.32
2017-11-12T23:34:43.084Z,14.52
2017-11-12T23:37:11.153Z,16.85
2017-11-12T23:39:39.236Z,15.13
2017-11-12T23:42:08.068Z,14.85
2017-11-12T23:44:36.302Z,14.55
2017-11-12T23:47:04.592Z,13.75
2017-11-12T23:49:32.685Z,14.45
2017-11-12T23:52:00.791Z,13.13
2017-11-12T23:54:28.892Z,14.55
2017-11-12T23:56:56.969Z,14.87
2017-11-12T23:59:25.057Z,13.68
